sensor_id;sensor_type;location;lat;lon;timestamp;temperature;humidity
23271;DHT22;11804;51.118;17.058;2023-04-03T00:01:21;2.90;99.90
23271;DHT22;11804;51.118;17.058;2023-04-03T00:03:49;2.80;99.90
23271;DHT22;11804;51.118;17.058;2023-04-03T00:06:18;2.80;99.90
23271;DHT22;11804;51.118;17.058;2023-04-03T00:08:47;2.80;99.90
23271;DHT22;11804;51.118;17.058;2023-04-03T00:11:15;2.80;99.90
23271;DHT22;11804;51.118;17.058;2023-04-03T00:13:42;2.80;99.90
23271;DHT22;11804;51.118;17.058;2023-04-03T00:16:11;2.70;99.90
23271;DHT22;11804;51.118;17.058;2023-04-03T00:18:40;2.70;99.90
23271;DHT22;11804;51.118;17.058;2023-04-03T00:21:09;2.70;99.90
23271;DHT22;11804;51.118;17.058;2023-04-03T00:23:37;2.70;99.90
23271;DHT22;11804;51.118;17.058;2023-04-03T00:26:05;2.70;99.90
23271;DHT22;11804;51.118;17.058;2023-04-03T00:28:32;2.70;99.90
23271;DHT22;11804;51.118;17.058;2023-04-03T00:31:00;2.70;99.90
23271;DHT22;11804;51.118;17.058;2023-04-03T00:33:28;2.70;99.90
23271;DHT22;11804;51.118;17.058;2023-04-03T00:35:55;2.60;99.90
23271;DHT22;11804;51.118;17.058;2023-04-03T00:38:23;2.60;99.90
23271;DHT22;11804;51.118;17.058;2023-04-03T00:40:51;2.60;99.90
23271;DHT22;11804;51.118;17.058;2023-04-03T00:43:21;2.40;99.90
23271;DHT22;11804;51.118;17.058;2023-04-03T00:45:50;2.50;99.90
23271;DHT22;11804;51.118;17.058;2023-04-03T00:48:32;2.40;99.90
23271;DHT22;11804;51.118;17.058;2023-04-03T00:51:02;2.40;99.90
23271;DHT22;11804;51.118;17.058;2023-04-03T00:53:40;2.40;99.90
23271;DHT22;11804;51.118;17.058;2023-04-03T00:56:06;2.40;99.90
23271;DHT22;11804;51.118;17.058;2023-04-03T00:58:41;2.40;99.90
23271;DHT22;11804;51.118;17.058;2023-04-03T01:01:12;2.40;99.90
23271;DHT22;11804;51.118;17.058;2023-04-03T01:03:40;2.30;99.90
23271;DHT22;11804;51.118;17.058;2023-04-03T01:06:09;2.30;99.90
23271;DHT22;11804;51.118;17.058;2023-04-03T01:08:36;2.30;99.90
23271;DHT22;11804;51.118;17.058;2023-04-03T01:11:04;2.30;99.90
23271;DHT22;11804;51.118;17.058;2023-04-03T01:13:33;2.30;99.90
23271;DHT22;11804;51.118;17.058;2023-04-03T01:16:03;2.20;99.90
23271;DHT22;11804;51.118;17.058;2023-04-03T01:18:34;2.20;99.90
23271;DHT22;11804;51.118;17.058;2023-04-03T01:23:46;2.20;99.90
23271;DHT22;11804;51.118;17.058;2023-04-03T01:26:09;2.20;99.90
23271;DHT22;11804;51.118;17.058;2023-04-03T01:28:38;2.20;99.90
23271;DHT22;11804;51.118;17.058;2023-04-03T01:31:10;2.30;99.90
23271;DHT22;11804;51.118;17.058;2023-04-03T01:33:38;2.20;99.90
23271;DHT22;11804;51.118;17.058;2023-04-03T01:36:07;2.30;99.90
23271;DHT22;11804;51.118;17.058;2023-04-03T01:38:34;2.30;99.90
23271;DHT22;11804;51.118;17.058;2023-04-03T01:41:02;2.20;99.90
23271;DHT22;11804;51.118;17.058;2023-04-03T01:43:30;2.20;99.90
23271;DHT22;11804;51.118;17.058;2023-04-03T01:45:58;2.20;99.90
23271;DHT22;11804;51.118;17.058;2023-04-03T01:48:25;2.20;99.90
23271;DHT22;11804;51.118;17.058;2023-04-03T01:50:54;2.20;99.90
23271;DHT22;11804;51.118;17.058;2023-04-03T01:53:22;2.10;99.90
23271;DHT22;11804;51.118;17.058;2023-04-03T01:55:50;2.10;99.90
23271;DHT22;11804;51.118;17.058;2023-04-03T01:58:18;2.10;99.90
23271;DHT22;11804;51.118;17.058;2023-04-03T02:00:45;2.00;99.90
23271;DHT22;11804;51.118;17.058;2023-04-03T02:03:13;2.00;99.90
23271;DHT22;11804;51.118;17.058;2023-04-03T02:05:41;1.90;99.90
23271;DHT22;11804;51.118;17.058;2023-04-03T02:08:09;1.90;99.90
23271;DHT22;11804;51.118;17.058;2023-04-03T02:10:37;1.90;99.90
23271;DHT22;11804;51.118;17.058;2023-04-03T02:13:05;1.90;99.90
23271;DHT22;11804;51.118;17.058;2023-04-03T02:15:33;1.90;99.90
23271;DHT22;11804;51.118;17.058;2023-04-03T02:18:00;1.80;99.90
23271;DHT22;11804;51.118;17.058;2023-04-03T02:20:28;1.90;99.90
23271;DHT22;11804;51.118;17.058;2023-04-03T02:22:55;1.80;99.90
23271;DHT22;11804;51.118;17.058;2023-04-03T02:25:23;1.80;99.90
23271;DHT22;11804;51.118;17.058;2023-04-03T02:27:51;1.80;99.90
23271;DHT22;11804;51.118;17.058;2023-04-03T02:30:18;1.80;99.90
23271;DHT22;11804;51.118;17.058;2023-04-03T02:32:46;1.80;99.90
23271;DHT22;11804;51.118;17.058;2023-04-03T02:35:14;1.70;99.90
23271;DHT22;11804;51.118;17.058;2023-04-03T02:37:41;1.70;99.90
23271;DHT22;11804;51.118;17.058;2023-04-03T02:40:09;1.70;99.90
23271;DHT22;11804;51.118;17.058;2023-04-03T02:42:38;1.70;99.90
23271;DHT22;11804;51.118;17.058;2023-04-03T02:45:07;1.60;99.90
23271;DHT22;11804;51.118;17.058;2023-04-03T02:47:35;1.60;99.90
23271;DHT22;11804;51.118;17.058;2023-04-03T02:50:04;1.50;99.90
23271;DHT22;11804;51.118;17.058;2023-04-03T02:52:31;1.50;99.90
23271;DHT22;11804;51.118;17.058;2023-04-03T02:54:59;1.50;99.90
23271;DHT22;11804;51.118;17.058;2023-04-03T02:57:27;1.50;99.90
23271;DHT22;11804;51.118;17.058;2023-04-03T02:59:54;1.50;99.90
23271;DHT22;11804;51.118;17.058;2023-04-03T03:02:22;1.60;99.90
23271;DHT22;11804;51.118;17.058;2023-04-03T03:04:49;1.50;99.90
23271;DHT22;11804;51.118;17.058;2023-04-03T03:07:18;1.50;99.90
23271;DHT22;11804;51.118;17.058;2023-04-03T03:09:46;1.50;99.90
23271;DHT22;11804;51.118;17.058;2023-04-03T03:12:15;1.50;99.90
23271;DHT22;11804;51.118;17.058;2023-04-03T03:14:45;1.50;99.90
23271;DHT22;11804;51.118;17.058;2023-04-03T03:17:12;1.30;99.90
23271;DHT22;11804;51.118;17.058;2023-04-03T03:19:40;1.40;99.90
23271;DHT22;11804;51.118;17.058;2023-04-03T03:22:08;1.40;99.90
23271;DHT22;11804;51.118;17.058;2023-04-03T03:24:35;1.30;99.90
23271;DHT22;11804;51.118;17.058;2023-04-03T03:27:03;1.20;99.90
23271;DHT22;11804;51.118;17.058;2023-04-03T03:29:32;1.20;99.90
23271;DHT22;11804;51.118;17.058;2023-04-03T03:32:00;1.10;99.90
23271;DHT22;11804;51.118;17.058;2023-04-03T03:34:28;1.10;99.90
23271;DHT22;11804;51.118;17.058;2023-04-03T03:36:55;1.10;99.90
23271;DHT22;11804;51.118;17.058;2023-04-03T03:39:23;1.10;99.90
23271;DHT22;11804;51.118;17.058;2023-04-03T03:41:51;1.20;99.90
23271;DHT22;11804;51.118;17.058;2023-04-03T03:44:20;1.20;99.90
23271;DHT22;11804;51.118;17.058;2023-04-03T03:46:48;1.10;99.90
23271;DHT22;11804;51.118;17.058;2023-04-03T03:49:16;1.10;99.90
23271;DHT22;11804;51.118;17.058;2023-04-03T03:51:44;1.00;99.90
23271;DHT22;11804;51.118;17.058;2023-04-03T03:54:12;1.00;99.90
23271;DHT22;11804;51.118;17.058;2023-04-03T03:56:40;1.00;99.90
23271;DHT22;11804;51.118;17.058;2023-04-03T03:59:08;1.00;99.90
23271;DHT22;11804;51.118;17.058;2023-04-03T04:01:35;1.00;99.90
23271;DHT22;11804;51.118;17.058;2023-04-03T04:04:03;1.00;99.90
23271;DHT22;11804;51.118;17.058;2023-04-03T04:06:31;1.00;99.90
23271;DHT22;11804;51.118;17.058;2023-04-03T04:08:58;0.90;99.90
23271;DHT22;11804;51.118;17.058;2023-04-03T04:11:26;0.90;99.90
23271;DHT22;11804;51.118;17.058;2023-04-03T04:13:54;0.90;99.90
23271;DHT22;11804;51.118;17.058;2023-04-03T04:16:22;0.90;99.90
23271;DHT22;11804;51.118;17.058;2023-04-03T04:18:49;0.80;99.90
23271;DHT22;11804;51.118;17.058;2023-04-03T04:21:17;0.80;99.90
23271;DHT22;11804;51.118;17.058;2023-04-03T04:23:44;0.90;99.90
23271;DHT22;11804;51.118;17.058;2023-04-03T04:26:12;0.90;99.90
23271;DHT22;11804;51.118;17.058;2023-04-03T04:28:40;0.80;99.90
23271;DHT22;11804;51.118;17.058;2023-04-03T04:31:07;0.70;99.90
23271;DHT22;11804;51.118;17.058;2023-04-03T04:33:35;0.80;99.90
23271;DHT22;11804;51.118;17.058;2023-04-03T04:36:03;0.80;99.90
23271;DHT22;11804;51.118;17.058;2023-04-03T04:38:31;0.80;99.90
23271;DHT22;11804;51.118;17.058;2023-04-03T04:40:58;0.80;99.90
23271;DHT22;11804;51.118;17.058;2023-04-03T04:43:26;0.70;99.90
23271;DHT22;11804;51.118;17.058;2023-04-03T04:46:03;0.70;99.90
23271;DHT22;11804;51.118;17.058;2023-04-03T04:48:31;0.80;99.90
23271;DHT22;11804;51.118;17.058;2023-04-03T04:50:58;0.80;99.90
23271;DHT22;11804;51.118;17.058;2023-04-03T04:53:26;0.80;99.90
23271;DHT22;11804;51.118;17.058;2023-04-03T04:55:54;0.90;99.90
23271;DHT22;11804;51.118;17.058;2023-04-03T04:58:23;0.90;99.90
23271;DHT22;11804;51.118;17.058;2023-04-03T05:00:58;0.90;99.90
23271;DHT22;11804;51.118;17.058;2023-04-03T05:03:27;0.90;99.90
23271;DHT22;11804;51.118;17.058;2023-04-03T05:05:55;1.00;99.90
23271;DHT22;11804;51.118;17.058;2023-04-03T05:08:24;1.00;99.90
23271;DHT22;11804;51.118;17.058;2023-04-03T05:10:52;1.00;99.90
23271;DHT22;11804;51.118;17.058;2023-04-03T05:13:20;1.00;99.90
23271;DHT22;11804;51.118;17.058;2023-04-03T05:15:48;1.00;99.90
23271;DHT22;11804;51.118;17.058;2023-04-03T05:18:15;1.10;99.90
23271;DHT22;11804;51.118;17.058;2023-04-03T05:20:43;1.10;99.90
23271;DHT22;11804;51.118;17.058;2023-04-03T05:23:11;1.10;99.90
23271;DHT22;11804;51.118;17.058;2023-04-03T05:25:39;1.20;99.90
23271;DHT22;11804;51.118;17.058;2023-04-03T05:28:07;1.20;99.90
23271;DHT22;11804;51.118;17.058;2023-04-03T05:30:35;1.20;99.90
23271;DHT22;11804;51.118;17.058;2023-04-03T05:33:04;1.30;99.90
23271;DHT22;11804;51.118;17.058;2023-04-03T05:35:32;1.40;99.90
23271;DHT22;11804;51.118;17.058;2023-04-03T05:38:02;2.10;99.90
23271;DHT22;11804;51.118;17.058;2023-04-03T05:40:29;3.40;99.90
23271;DHT22;11804;51.118;17.058;2023-04-03T05:42:57;4.50;99.90
23271;DHT22;11804;51.118;17.058;2023-04-03T05:45:25;5.50;99.90
23271;DHT22;11804;51.118;17.058;2023-04-03T05:47:52;5.90;93.10
23271;DHT22;11804;51.118;17.058;2023-04-03T05:50:20;6.20;90.70
23271;DHT22;11804;51.118;17.058;2023-04-03T05:52:49;6.30;88.90
23271;DHT22;11804;51.118;17.058;2023-04-03T05:55:19;6.80;85.90
23271;DHT22;11804;51.118;17.058;2023-04-03T05:57:47;7.20;80.50
23271;DHT22;11804;51.118;17.058;2023-04-03T06:00:15;7.10;80.20
23271;DHT22;11804;51.118;17.058;2023-04-03T06:02:43;7.30;78.50
23271;DHT22;11804;51.118;17.058;2023-04-03T06:05:11;7.40;78.20
23271;DHT22;11804;51.118;17.058;2023-04-03T06:07:39;7.80;76.00
23271;DHT22;11804;51.118;17.058;2023-04-03T06:10:09;8.00;73.90
23271;DHT22;11804;51.118;17.058;2023-04-03T06:12:38;8.30;71.10
23271;DHT22;11804;51.118;17.058;2023-04-03T06:15:08;8.40;70.00
23271;DHT22;11804;51.118;17.058;2023-04-03T06:17:37;8.40;69.90
23271;DHT22;11804;51.118;17.058;2023-04-03T06:20:06;8.60;68.60
23271;DHT22;11804;51.118;17.058;2023-04-03T06:22:34;8.50;68.20
23271;DHT22;11804;51.118;17.058;2023-04-03T06:25:02;8.20;67.40
23271;DHT22;11804;51.118;17.058;2023-04-03T06:27:29;8.10;68.70
23271;DHT22;11804;51.118;17.058;2023-04-03T06:29:57;7.90;68.60
23271;DHT22;11804;51.118;17.058;2023-04-03T06:32:25;8.30;67.70
23271;DHT22;11804;51.118;17.058;2023-04-03T06:34:52;8.50;67.60
23271;DHT22;11804;51.118;17.058;2023-04-03T06:37:22;8.40;65.50
23271;DHT22;11804;51.118;17.058;2023-04-03T06:39:52;8.40;67.10
23271;DHT22;11804;51.118;17.058;2023-04-03T06:42:19;8.90;66.00
23271;DHT22;11804;51.118;17.058;2023-04-03T06:44:48;9.00;63.80
23271;DHT22;11804;51.118;17.058;2023-04-03T06:47:17;8.20;64.10
23271;DHT22;11804;51.118;17.058;2023-04-03T06:49:45;8.20;66.20
23271;DHT22;11804;51.118;17.058;2023-04-03T06:52:13;7.00;69.00
23271;DHT22;11804;51.118;17.058;2023-04-03T06:54:41;6.30;71.90
23271;DHT22;11804;51.118;17.058;2023-04-03T06:57:09;5.90;74.80
23271;DHT22;11804;51.118;17.058;2023-04-03T06:59:37;5.60;76.90
23271;DHT22;11804;51.118;17.058;2023-04-03T07:02:04;6.20;77.00
23271;DHT22;11804;51.118;17.058;2023-04-03T07:04:32;6.30;74.80
23271;DHT22;11804;51.118;17.058;2023-04-03T07:07:01;6.80;73.50
23271;DHT22;11804;51.118;17.058;2023-04-03T07:09:28;6.80;72.00
23271;DHT22;11804;51.118;17.058;2023-04-03T07:11:58;6.50;73.30
23271;DHT22;11804;51.118;17.058;2023-04-03T07:14:25;6.20;74.70
23271;DHT22;11804;51.118;17.058;2023-04-03T07:16:53;6.70;74.80
23271;DHT22;11804;51.118;17.058;2023-04-03T07:19:21;7.40;70.60
23271;DHT22;11804;51.118;17.058;2023-04-03T07:21:50;8.40;66.60
23271;DHT22;11804;51.118;17.058;2023-04-03T07:24:18;9.00;63.60
23271;DHT22;11804;51.118;17.058;2023-04-03T07:26:50;9.10;60.50
23271;DHT22;11804;51.118;17.058;2023-04-03T07:29:19;8.70;62.40
23271;DHT22;11804;51.118;17.058;2023-04-03T07:31:48;9.00;62.10
23271;DHT22;11804;51.118;17.058;2023-04-03T07:34:18;9.70;58.70
23271;DHT22;11804;51.118;17.058;2023-04-03T07:36:45;10.30;57.30
23271;DHT22;11804;51.118;17.058;2023-04-03T07:39:12;10.70;55.80
23271;DHT22;11804;51.118;17.058;2023-04-03T07:41:40;10.50;54.10
23271;DHT22;11804;51.118;17.058;2023-04-03T07:44:08;9.90;55.90
23271;DHT22;11804;51.118;17.058;2023-04-03T07:46:37;9.40;58.00
23271;DHT22;11804;51.118;17.058;2023-04-03T07:49:05;9.00;57.60
23271;DHT22;11804;51.118;17.058;2023-04-03T07:51:33;8.00;59.30
23271;DHT22;11804;51.118;17.058;2023-04-03T07:54:04;8.00;61.60
23271;DHT22;11804;51.118;17.058;2023-04-03T07:56:31;8.80;59.80
23271;DHT22;11804;51.118;17.058;2023-04-03T07:59:00;9.60;57.30
23271;DHT22;11804;51.118;17.058;2023-04-03T08:01:27;10.10;54.70
23271;DHT22;11804;51.118;17.058;2023-04-03T08:03:57;10.70;53.00
23271;DHT22;11804;51.118;17.058;2023-04-03T08:06:24;10.90;53.10
23271;DHT22;11804;51.118;17.058;2023-04-03T08:08:52;10.70;51.60
23271;DHT22;11804;51.118;17.058;2023-04-03T08:11:23;9.60;53.00
23271;DHT22;11804;51.118;17.058;2023-04-03T08:13:52;10.10;54.70
23271;DHT22;11804;51.118;17.058;2023-04-03T08:16:22;10.00;52.70
23271;DHT22;11804;51.118;17.058;2023-04-03T08:18:53;10.90;52.40
23271;DHT22;11804;51.118;17.058;2023-04-03T08:21:21;11.10;51.40
23271;DHT22;11804;51.118;17.058;2023-04-03T08:23:50;10.90;51.40
23271;DHT22;11804;51.118;17.058;2023-04-03T08:26:20;11.30;51.10
23271;DHT22;11804;51.118;17.058;2023-04-03T08:28:49;11.80;50.40
23271;DHT22;11804;51.118;17.058;2023-04-03T08:31:18;12.00;49.00
23271;DHT22;11804;51.118;17.058;2023-04-03T08:33:47;12.50;47.60
23271;DHT22;11804;51.118;17.058;2023-04-03T08:36:25;12.40;46.70
23271;DHT22;11804;51.118;17.058;2023-04-03T08:38:50;12.00;45.00
23271;DHT22;11804;51.118;17.058;2023-04-03T08:41:41;10.70;48.00
23271;DHT22;11804;51.118;17.058;2023-04-03T08:46:59;11.40;50.20
23271;DHT22;11804;51.118;17.058;2023-04-03T08:49:31;11.80;48.80
23271;DHT22;11804;51.118;17.058;2023-04-03T08:52:01;11.90;46.00
23271;DHT22;11804;51.118;17.058;2023-04-03T08:54:34;11.50;44.60
23271;DHT22;11804;51.118;17.058;2023-04-03T08:57:04;10.80;45.30
23271;DHT22;11804;51.118;17.058;2023-04-03T08:59:38;9.60;46.90
23271;DHT22;11804;51.118;17.058;2023-04-03T09:04:49;8.20;51.80
23271;DHT22;11804;51.118;17.058;2023-04-03T09:07:23;8.30;51.60
23271;DHT22;11804;51.118;17.058;2023-04-03T09:09:50;8.20;51.30
23271;DHT22;11804;51.118;17.058;2023-04-03T09:12:21;8.10;51.90
23271;DHT22;11804;51.118;17.058;2023-04-03T09:15:04;8.50;51.60
23271;DHT22;11804;51.118;17.058;2023-04-03T09:26:30;8.50;48.30
23271;DHT22;11804;51.118;17.058;2023-04-03T09:28:37;7.90;49.40
23271;DHT22;11804;51.118;17.058;2023-04-03T09:31:18;7.60;49.90
23271;DHT22;11804;51.118;17.058;2023-04-03T09:33:44;7.30;50.60
23271;DHT22;11804;51.118;17.058;2023-04-03T09:36:13;7.30;49.60
23271;DHT22;11804;51.118;17.058;2023-04-03T09:38:42;7.30;49.20
23271;DHT22;11804;51.118;17.058;2023-04-03T09:41:16;7.40;48.90
23271;DHT22;11804;51.118;17.058;2023-04-03T09:43:52;7.20;48.90
23271;DHT22;11804;51.118;17.058;2023-04-03T09:46:26;7.20;49.80
23271;DHT22;11804;51.118;17.058;2023-04-03T09:48:59;7.40;50.30
23271;DHT22;11804;51.118;17.058;2023-04-03T09:51:29;7.80;49.30
23271;DHT22;11804;51.118;17.058;2023-04-03T09:53:58;8.10;49.30
23271;DHT22;11804;51.118;17.058;2023-04-03T09:56:28;7.90;49.40
23271;DHT22;11804;51.118;17.058;2023-04-03T10:01:38;7.80;49.00
23271;DHT22;11804;51.118;17.058;2023-04-03T10:04:09;8.30;49.30
23271;DHT22;11804;51.118;17.058;2023-04-03T10:06:40;7.60;49.00
23271;DHT22;11804;51.118;17.058;2023-04-03T10:12:04;7.40;49.80
23271;DHT22;11804;51.118;17.058;2023-04-03T10:20:43;6.90;49.30
23271;DHT22;11804;51.118;17.058;2023-04-03T10:28:43;7.00;50.00
23271;DHT22;11804;51.118;17.058;2023-04-03T10:31:37;6.80;48.90
23271;DHT22;11804;51.118;17.058;2023-04-03T10:39:41;7.60;49.70
23271;DHT22;11804;51.118;17.058;2023-04-03T10:42:27;7.40;49.70
23271;DHT22;11804;51.118;17.058;2023-04-03T10:55:38;7.80;48.10
23271;DHT22;11804;51.118;17.058;2023-04-03T10:58:06;7.50;49.80
23271;DHT22;11804;51.118;17.058;2023-04-03T11:00:41;7.20;50.50
23271;DHT22;11804;51.118;17.058;2023-04-03T11:03:15;7.40;49.50
23271;DHT22;11804;51.118;17.058;2023-04-03T11:05:49;7.80;47.90
23271;DHT22;11804;51.118;17.058;2023-04-03T11:11:20;8.80;46.20
23271;DHT22;11804;51.118;17.058;2023-04-03T11:13:58;8.40;46.60
23271;DHT22;11804;51.118;17.058;2023-04-03T11:16:27;8.10;46.80
23271;DHT22;11804;51.118;17.058;2023-04-03T11:18:59;8.00;47.00
23271;DHT22;11804;51.118;17.058;2023-04-03T11:21:34;8.10;47.60
23271;DHT22;11804;51.118;17.058;2023-04-03T11:24:04;8.00;47.60
23271;DHT22;11804;51.118;17.058;2023-04-03T11:26:36;7.60;47.90
23271;DHT22;11804;51.118;17.058;2023-04-03T11:29:14;7.10;48.90
23271;DHT22;11804;51.118;17.058;2023-04-03T11:34:44;7.20;49.70
23271;DHT22;11804;51.118;17.058;2023-04-03T11:40:04;7.40;48.50
23271;DHT22;11804;51.118;17.058;2023-04-03T11:42:38;7.50;47.30
23271;DHT22;11804;51.118;17.058;2023-04-03T11:47:55;7.60;46.50
23271;DHT22;11804;51.118;17.058;2023-04-03T11:58:17;7.20;49.00
23271;DHT22;11804;51.118;17.058;2023-04-03T12:00:59;7.00;46.90
23271;DHT22;11804;51.118;17.058;2023-04-03T12:05:57;7.10;46.40
23271;DHT22;11804;51.118;17.058;2023-04-03T12:19:35;8.10;45.40
23271;DHT22;11804;51.118;17.058;2023-04-03T12:22:08;7.90;45.50
23271;DHT22;11804;51.118;17.058;2023-04-03T12:24:42;7.50;46.70
23271;DHT22;11804;51.118;17.058;2023-04-03T12:27:21;7.20;45.80
23271;DHT22;11804;51.118;17.058;2023-04-03T12:30:16;7.40;45.10
23271;DHT22;11804;51.118;17.058;2023-04-03T12:32:50;7.40;42.70
23271;DHT22;11804;51.118;17.058;2023-04-03T12:35:34;7.20;43.30
23271;DHT22;11804;51.118;17.058;2023-04-03T12:38:23;7.20;45.00
23271;DHT22;11804;51.118;17.058;2023-04-03T12:41:18;7.50;46.10
23271;DHT22;11804;51.118;17.058;2023-04-03T12:46:47;7.40;47.50
23271;DHT22;11804;51.118;17.058;2023-04-03T12:49:39;7.60;46.70
23271;DHT22;11804;51.118;17.058;2023-04-03T12:52:36;7.70;44.80
23271;DHT22;11804;51.118;17.058;2023-04-03T12:55:07;7.80;44.80
23271;DHT22;11804;51.118;17.058;2023-04-03T12:57:32;7.70;44.10
23271;DHT22;11804;51.118;17.058;2023-04-03T13:00:00;7.50;45.80
23271;DHT22;11804;51.118;17.058;2023-04-03T13:02:32;7.60;48.60
23271;DHT22;11804;51.118;17.058;2023-04-03T13:07:56;6.90;47.30
23271;DHT22;11804;51.118;17.058;2023-04-03T13:10:20;6.90;48.30
23271;DHT22;11804;51.118;17.058;2023-04-03T13:17:49;7.40;47.10
23271;DHT22;11804;51.118;17.058;2023-04-03T13:20:27;7.50;46.30
23271;DHT22;11804;51.118;17.058;2023-04-03T13:23:00;7.70;45.70
23271;DHT22;11804;51.118;17.058;2023-04-03T13:25:31;7.50;44.70
23271;DHT22;11804;51.118;17.058;2023-04-03T13:28:01;7.40;44.90
23271;DHT22;11804;51.118;17.058;2023-04-03T13:30:34;7.40;44.80
23271;DHT22;11804;51.118;17.058;2023-04-03T13:33:05;7.80;45.10
23271;DHT22;11804;51.118;17.058;2023-04-03T13:35:36;7.90;44.60
23271;DHT22;11804;51.118;17.058;2023-04-03T13:40:52;7.60;44.40
23271;DHT22;11804;51.118;17.058;2023-04-03T13:43:23;7.50;44.70
23271;DHT22;11804;51.118;17.058;2023-04-03T13:46:02;7.80;44.90
23271;DHT22;11804;51.118;17.058;2023-04-03T13:48:40;7.70;45.10
23271;DHT22;11804;51.118;17.058;2023-04-03T13:53:48;7.40;45.80
23271;DHT22;11804;51.118;17.058;2023-04-03T13:56:31;7.10;46.10
23271;DHT22;11804;51.118;17.058;2023-04-03T14:01:43;7.00;46.30
23271;DHT22;11804;51.118;17.058;2023-04-03T14:04:19;7.10;45.90
23271;DHT22;11804;51.118;17.058;2023-04-03T14:06:42;7.40;44.70
23271;DHT22;11804;51.118;17.058;2023-04-03T14:09:11;7.30;44.70
23271;DHT22;11804;51.118;17.058;2023-04-03T14:11:40;7.30;45.20
23271;DHT22;11804;51.118;17.058;2023-04-03T14:14:13;7.40;45.10
23271;DHT22;11804;51.118;17.058;2023-04-03T14:16:43;7.60;45.60
23271;DHT22;11804;51.118;17.058;2023-04-03T14:19:33;7.60;45.30
23271;DHT22;11804;51.118;17.058;2023-04-03T14:21:57;7.00;44.90
23271;DHT22;11804;51.118;17.058;2023-04-03T14:24:25;6.70;46.40
23271;DHT22;11804;51.118;17.058;2023-04-03T14:26:54;6.50;47.10
23271;DHT22;11804;51.118;17.058;2023-04-03T14:29:23;6.80;47.20
23271;DHT22;11804;51.118;17.058;2023-04-03T14:31:51;7.10;45.90
23271;DHT22;11804;51.118;17.058;2023-04-03T14:34:19;7.20;44.70
23271;DHT22;11804;51.118;17.058;2023-04-03T14:36:47;7.10;44.00
23271;DHT22;11804;51.118;17.058;2023-04-03T14:39:17;7.20;44.90
23271;DHT22;11804;51.118;17.058;2023-04-03T14:41:51;7.50;44.70
23271;DHT22;11804;51.118;17.058;2023-04-03T14:44:19;7.60;44.50
23271;DHT22;11804;51.118;17.058;2023-04-03T14:46:47;7.40;44.10
23271;DHT22;11804;51.118;17.058;2023-04-03T14:49:19;7.00;44.60
23271;DHT22;11804;51.118;17.058;2023-04-03T14:51:47;6.80;44.50
23271;DHT22;11804;51.118;17.058;2023-04-03T14:54:18;6.80;44.40
23271;DHT22;11804;51.118;17.058;2023-04-03T14:56:47;6.70;44.90
23271;DHT22;11804;51.118;17.058;2023-04-03T14:59:15;6.60;44.80
23271;DHT22;11804;51.118;17.058;2023-04-03T15:01:44;6.50;45.00
23271;DHT22;11804;51.118;17.058;2023-04-03T15:04:17;6.50;45.40
23271;DHT22;11804;51.118;17.058;2023-04-03T15:06:47;6.50;45.40
23271;DHT22;11804;51.118;17.058;2023-04-03T15:09:24;6.30;44.80
23271;DHT22;11804;51.118;17.058;2023-04-03T15:11:53;6.40;45.30
23271;DHT22;11804;51.118;17.058;2023-04-03T15:14:22;6.50;45.80
23271;DHT22;11804;51.118;17.058;2023-04-03T15:16:50;6.50;45.30
23271;DHT22;11804;51.118;17.058;2023-04-03T15:19:17;6.80;45.90
23271;DHT22;11804;51.118;17.058;2023-04-03T15:21:45;6.80;45.70
23271;DHT22;11804;51.118;17.058;2023-04-03T15:24:13;6.70;45.70
23271;DHT22;11804;51.118;17.058;2023-04-03T15:26:41;6.60;46.00
23271;DHT22;11804;51.118;17.058;2023-04-03T15:29:09;6.40;47.10
23271;DHT22;11804;51.118;17.058;2023-04-03T15:31:37;6.50;46.90
23271;DHT22;11804;51.118;17.058;2023-04-03T15:34:04;6.60;47.10
23271;DHT22;11804;51.118;17.058;2023-04-03T15:36:32;6.50;46.40
23271;DHT22;11804;51.118;17.058;2023-04-03T15:38:59;6.50;46.90
23271;DHT22;11804;51.118;17.058;2023-04-03T15:41:27;6.50;47.30
23271;DHT22;11804;51.118;17.058;2023-04-03T15:43:55;6.50;47.00
23271;DHT22;11804;51.118;17.058;2023-04-03T15:46:22;6.50;47.30
23271;DHT22;11804;51.118;17.058;2023-04-03T15:48:52;6.50;47.60
23271;DHT22;11804;51.118;17.058;2023-04-03T15:51:19;6.20;47.90
23271;DHT22;11804;51.118;17.058;2023-04-03T15:53:48;6.20;48.50
23271;DHT22;11804;51.118;17.058;2023-04-03T15:56:16;6.30;49.00
23271;DHT22;11804;51.118;17.058;2023-04-03T15:58:43;6.30;49.20
23271;DHT22;11804;51.118;17.058;2023-04-03T16:01:11;6.20;49.70
23271;DHT22;11804;51.118;17.058;2023-04-03T16:03:41;6.30;50.00
23271;DHT22;11804;51.118;17.058;2023-04-03T16:06:13;6.20;50.50
23271;DHT22;11804;51.118;17.058;2023-04-03T16:08:41;5.80;50.70
23271;DHT22;11804;51.118;17.058;2023-04-03T16:11:09;5.70;51.30
23271;DHT22;11804;51.118;17.058;2023-04-03T16:13:37;5.80;51.60
23271;DHT22;11804;51.118;17.058;2023-04-03T16:16:05;5.90;51.60
23271;DHT22;11804;51.118;17.058;2023-04-03T16:18:34;6.00;51.20
23271;DHT22;11804;51.118;17.058;2023-04-03T16:21:06;5.90;50.40
23271;DHT22;11804;51.118;17.058;2023-04-03T16:23:34;5.80;50.80
23271;DHT22;11804;51.118;17.058;2023-04-03T16:26:02;5.80;50.70
23271;DHT22;11804;51.118;17.058;2023-04-03T16:28:29;5.80;50.90
23271;DHT22;11804;51.118;17.058;2023-04-03T16:30:57;5.70;51.40
23271;DHT22;11804;51.118;17.058;2023-04-03T16:33:25;5.50;51.70
23271;DHT22;11804;51.118;17.058;2023-04-03T16:35:53;5.60;52.30
23271;DHT22;11804;51.118;17.058;2023-04-03T16:38:21;5.70;52.60
23271;DHT22;11804;51.118;17.058;2023-04-03T16:40:49;5.60;51.80
23271;DHT22;11804;51.118;17.058;2023-04-03T16:43:18;5.60;51.60
23271;DHT22;11804;51.118;17.058;2023-04-03T16:45:46;5.50;51.70
23271;DHT22;11804;51.118;17.058;2023-04-03T16:48:14;5.60;52.00
23271;DHT22;11804;51.118;17.058;2023-04-03T16:50:42;5.60;51.70
23271;DHT22;11804;51.118;17.058;2023-04-03T16:53:11;5.40;51.90
23271;DHT22;11804;51.118;17.058;2023-04-03T16:55:38;5.50;52.00
23271;DHT22;11804;51.118;17.058;2023-04-03T16:58:06;5.60;52.00
23271;DHT22;11804;51.118;17.058;2023-04-03T17:00:34;5.50;51.90
23271;DHT22;11804;51.118;17.058;2023-04-03T17:03:04;5.50;51.90
23271;DHT22;11804;51.118;17.058;2023-04-03T17:05:31;5.50;52.60
23271;DHT22;11804;51.118;17.058;2023-04-03T17:08:01;5.40;52.50
23271;DHT22;11804;51.118;17.058;2023-04-03T17:10:29;5.40;52.40
23271;DHT22;11804;51.118;17.058;2023-04-03T17:12:57;5.20;52.20
23271;DHT22;11804;51.118;17.058;2023-04-03T17:15:26;5.20;53.50
23271;DHT22;11804;51.118;17.058;2023-04-03T17:17:54;5.20;53.20
23271;DHT22;11804;51.118;17.058;2023-04-03T17:20:21;5.40;53.70
23271;DHT22;11804;51.118;17.058;2023-04-03T17:22:49;5.40;53.80
23271;DHT22;11804;51.118;17.058;2023-04-03T17:25:17;5.30;53.30
23271;DHT22;11804;51.118;17.058;2023-04-03T17:27:46;5.00;53.40